Latest Weather Observations for Campania

IDT60901

Issued at 10:45 pm EST Wednesday 20 August 2014 (issued every 10 minutes, with the page automatically refreshed every 10 minutes)

About weather observations | Map of Hobart area stations | Latest observations for Hobart area | Other Formats
Station Details ID: 094212 Name: CAMPANIA (KINCORA) Lat: -42.69 Lon: 147.43 Height: 45.0 m
Data from the previous 72 hours. | See also: Recent months at Campania
Date/Time
EST
Tmp

°C
App
Tmp
°C
Dew
Point
°C
Rel
Hum
%
Delta-T

°C
Wind Press
QNH
hPa
Press
MSL
hPa
Rain
since
9 am
mm
Dir
 
Spd
km/h
Gust
km/h
Spd
kts
Gust
kts
20/10:30pm 2.4 -1.4 1.7 95 0.3 N 11 13 6 7 - - 0.0
20/10:00pm 2.7 -1.1 1.8 94 0.4 N 11 13 6 7 - - 0.0
20/09:30pm 3.9 0.0 3.2 95 0.3 N 13 15 7 8 - - 0.0
20/09:00pm 3.0 -0.7 2.1 94 0.4 N 11 13 6 7 - - 0.0
20/08:30pm 3.6 0.9 2.6 93 0.4 N 6 9 3 5 - - 0.0
20/08:00pm 3.6 0.9 2.6 93 0.4 NNE 6 13 3 7 - - 0.0
20/07:30pm 4.5 3.1 3.3 92 0.5 CALM 0 7 0 4 - - 0.0
20/07:00pm 5.4 2.8 4.2 92 0.5 WSW 7 9 4 5 - - 0.0
20/06:30pm 6.6 3.7 4.4 86 1.0 SSW 9 9 5 5 - - 0.0
20/06:00pm 7.2 4.2 4.2 81 1.3 SSW 9 11 5 6 - - 0.0
20/05:30pm 8.7 5.8 4.7 76 1.8 S 9 11 5 6 - - 0.0
20/05:00pm 11.0 7.4 4.9 66 2.8 S 13 19 7 10 - - 0.0
20/04:30pm 12.2 8.6 4.9 61 3.4 S 13 19 7 10 - - 0.0
20/04:00pm 13.4 10.2 5.1 57 3.9 S 11 15 6 8 - - 0.0
20/03:30pm 13.9 12.0 5.0 55 4.2 NNE 4 9 2 5 - - 0.0
20/03:00pm 13.9 11.4 4.8 54 4.2 E 7 11 4 6 - - 0.0
20/02:30pm 13.7 11.2 4.8 55 4.1 S 7 9 4 5 - - 0.0
20/02:00pm 13.5 11.0 4.6 55 4.1 E 7 9 4 5 - - 0.0
20/01:30pm 13.5 10.4 3.8 52 4.4 ENE 9 15 5 8 - - 0.0
20/01:00pm 13.1 10.1 4.3 55 4.0 ENE 9 13 5 7 - - 0.0
20/12:30pm 12.7 10.1 3.4 53 4.2 NNW 6 9 3 5 - - 0.0
20/12:00pm 12.8 10.6 3.5 53 4.2 N 4 9 2 5 - - 0.0
20/11:30am 12.5 10.0 4.5 58 3.7 WNW 7 13 4 7 - - 0.0
20/11:00am 11.7 8.5 4.9 63 3.1 NNW 11 15 6 8 - - 0.0
20/10:30am 10.7 7.4 4.8 67 2.7 NNW 11 15 6 8 - - 0.0
20/10:00am 9.4 6.1 4.4 71 2.2 N 11 13 6 7 - - 0.0
20/09:30am 8.1 5.0 3.6 73 1.9 N 9 13 5 7 - - 0.0
20/09:00am 7.1 3.3 3.9 80 1.4 N 13 15 7 8 - - 0.0
20/08:30am 5.4 2.3 3.7 89 0.7 N 9 13 5 7 - - 0.0
20/08:00am 2.8 -1.8 1.8 93 0.4 N 15 17 8 9 - - 0.0
20/07:30am 1.5 -3.2 0.9 96 0.2 NNE 15 17 8 9 - - 0.0
20/07:00am 0.0 -3.8 -0.6 96 0.2 N 9 13 5 7 - - 0.0
20/06:30am 0.2 -3.9 -0.2 97 0.1 NNW 11 13 6 7 - - 0.0
20/06:00am -0.1 -4.3 -0.7 96 0.2 N 11 13 6 7 - - 0.0
20/05:30am 0.0 -4.6 -0.7 95 0.2 N 13 15 7 8 - - 0.0
20/05:00am 0.2 -4.3 -0.5 95 0.3 N 13 15 7 8 - - 0.0
20/04:30am 0.4 -3.0 -0.4 94 0.3 N 7 11 4 6 - - 0.0
20/04:00am 1.2 -2.5 0.2 93 0.4 N 9 15 5 8 - - 0.0
20/03:30am 1.5 -2.9 0.5 93 0.4 N 13 17 7 9 - - 0.0
20/03:00am 1.8 -2.2 0.6 92 0.4 N 11 15 6 8 - - 0.0
20/02:30am 1.8 -2.1 0.9 94 0.3 N 11 15 6 8 - - 0.0
20/02:00am 1.5 -2.5 0.2 91 0.5 N 11 13 6 7 - - 0.0
20/01:30am 2.4 -1.9 0.9 90 0.6 N 13 15 7 8 - - 0.0
20/01:00am 3.0 -1.7 1.1 87 0.7 NNE 15 17 8 9 - - 0.0
20/12:30am 4.7 0.2 2.1 83 1.0 N 15 15 8 8 - - 0.0
20/12:00am 6.1 2.5 2.7 79 1.4 N 11 15 6 8 - - 0.0
 
Date/Time
EST
Tmp

°C
App
Tmp
°C
Dew
Point
°C
Rel
Hum
%
Delta-T

°C
Wind Press
QNH
hPa
Press
MSL
hPa
Rain
since
9 am
mm
Dir
 
Spd
km/h
Gust
km/h
Spd
kts
Gust
kts
19/11:30pm 4.7 0.9 1.9 82 1.1 NNE 11 20 6 11 - - 0.0
19/11:00pm 4.5 0.7 1.7 82 1.1 N 11 13 6 7 - - 0.0
19/10:30pm 5.2 1.4 2.0 80 1.3 N 11 15 6 8 - - 0.0
19/10:00pm 6.8 3.9 2.5 74 1.8 N 7 9 4 5 - - 0.0
19/09:30pm 7.2 4.3 2.7 73 1.9 N 7 11 4 6 - - 0.0
19/09:00pm 9.1 5.9 3.3 67 2.5 WNW 9 13 5 7 - - 0.0
19/08:30pm 8.1 5.3 3.2 71 2.1 N 7 11 4 6 - - 0.0
19/08:00pm 9.0 6.2 3.2 67 2.5 NNE 7 11 4 6 - - 0.0
19/07:30pm 9.1 6.3 3.1 66 2.6 N 7 13 4 7 - - 0.0
19/07:00pm 10.0 4.9 3.1 62 3.0 W 19 28 10 15 - - 0.0
19/06:30pm 10.5 6.0 4.0 64 2.9 W 17 24 9 13 - - 0.0
19/06:00pm 11.2 6.1 4.0 61 3.2 W 20 26 11 14 - - 0.0
19/05:30pm 11.5 7.5 4.7 63 3.1 WSW 15 17 8 9 - - 0.0
19/05:00pm 12.1 8.5 4.8 61 3.3 W 13 17 7 9 - - 0.0
19/04:30pm 12.0 8.0 5.0 62 3.2 WSW 15 19 8 10 - - 0.0
19/04:00pm 12.4 9.1 4.4 58 3.6 WSW 11 17 6 9 - - 0.0
19/03:30pm 13.0 10.4 4.2 55 4.0 NW 7 13 4 7 - - 0.0
19/03:00pm 13.3 10.5 5.0 57 3.9 WSW 9 13 5 7 - - 0.0
19/02:30pm 12.9 9.5 3.8 54 4.1 WNW 11 19 6 10 - - 0.0
19/02:00pm 13.3 9.8 3.7 52 4.3 WNW 11 17 6 9 - - 0.0
19/01:30pm 12.4 9.1 4.4 58 3.6 WNW 11 17 6 9 - - 0.0
19/01:00pm 12.4 7.5 3.9 56 3.8 WNW 19 28 10 15 - - 0.0
19/12:30pm 12.2 7.0 3.7 56 3.8 WNW 20 28 11 15 - - 0.0
19/12:00pm 11.9 5.9 3.4 56 3.8 W 24 33 13 18 - - 0.0
19/11:30am 12.1 8.8 4.6 60 3.4 WNW 11 20 6 11 - - 0.0
19/11:00am 10.7 6.8 3.5 61 3.2 WNW 13 17 7 9 - - 0.0
19/10:30am 11.4 8.7 2.9 56 3.7 NNW 6 13 3 7 - - 0.0
19/10:00am 9.6 6.1 3.6 66 2.6 N 11 13 6 7 - - 0.0
19/09:30am 7.8 4.2 3.1 72 2.0 N 11 15 6 8 - - 0.0
19/09:00am 6.9 2.6 3.0 76 1.6 N 15 19 8 10 - - 0.0
19/08:30am 4.0 -0.1 2.2 88 0.7 NNE 13 15 7 8 - - 0.0
19/08:00am 2.7 -2.3 1.1 89 0.6 NNE 17 20 9 11 - - 0.0
19/07:30am 2.5 -2.6 0.9 89 0.6 NNE 17 20 9 11 - - 0.0
19/07:00am 2.7 -2.7 1.1 89 0.6 N 19 22 10 12 - - 0.0
19/06:30am 2.4 -2.7 0.9 90 0.6 N 17 20 9 11 - - 0.0
19/06:00am 2.5 -3.0 0.9 89 0.6 N 19 20 10 11 - - 0.0
19/05:30am 2.7 -1.6 1.1 89 0.6 N 13 20 7 11 - - 0.0
19/05:00am 2.9 -1.8 1.1 88 0.7 N 15 19 8 10 - - 0.0
19/04:30am 2.3 -2.4 1.0 91 0.5 NNE 15 19 8 10 - - 0.0
19/04:00am 2.8 -2.2 1.3 90 0.6 N 17 19 9 10 - - 0.0
19/03:30am 3.5 -1.4 1.7 88 0.7 N 17 20 9 11 - - 0.0
19/03:00am 2.1 -2.6 1.1 93 0.4 NNE 15 17 8 9 - - 0.0
19/02:30am 1.6 -2.8 0.6 93 0.4 NNE 13 17 7 9 - - 0.0
19/02:00am 1.6 -2.4 0.6 93 0.4 N 11 13 6 7 - - 0.0
19/01:30am 1.4 -1.9 0.2 92 0.4 N 7 9 4 5 - - 0.0
19/01:00am 1.7 -1.9 0.7 93 0.4 NNE 9 15 5 8 - - 0.0
19/12:30am 1.6 -1.5 0.4 92 0.4 N 6 9 3 5 - - 0.0
19/12:00am 1.9 -1.7 0.7 92 0.4 N 9 13 5 7 - - 0.0
 
Date/Time
EST
Tmp

°C
App
Tmp
°C
Dew
Point
°C
Rel
Hum
%
Delta-T

°C
Wind Press
QNH
hPa
Press
MSL
hPa
Rain
since
9 am
mm
Dir
 
Spd
km/h
Gust
km/h
Spd
kts
Gust
kts
18/11:30pm 1.6 -2.0 0.4 92 0.4 N 9 15 5 8 - - 0.0
18/11:00pm 1.4 -2.2 0.4 93 0.4 N 9 11 5 6 - - 0.0
18/10:30pm 1.0 -2.7 -0.3 91 0.5 N 9 11 5 6 - - 0.0
18/10:00pm 0.8 -2.9 -0.3 92 0.4 N 9 11 5 6 - - 0.0
18/09:30pm 1.3 -2.4 0.0 91 0.5 N 9 11 5 6 - - 0.0
18/09:00pm 1.4 -2.3 -0.2 89 0.6 N 9 11 5 6 - - 0.0
18/08:30pm 1.8 -1.9 0.2 89 0.6 N 9 11 5 6 - - 0.0
18/08:00pm 2.9 -1.0 1.4 90 0.6 N 11 13 6 7 - - 0.0
18/07:30pm 2.5 -0.5 0.6 87 0.7 N 6 7 3 4 - - 0.0
18/07:00pm 3.4 -0.1 1.0 84 0.9 NNW 9 15 5 8 - - 0.0
18/06:30pm 3.6 1.1 1.3 85 0.9 NW 4 9 2 5 - - 0.0
18/06:00pm 3.9 1.0 1.4 84 1.0 W 6 7 3 4 - - 0.0
18/05:30pm 7.1 4.1 2.0 70 2.1 WSW 7 9 4 5 - - 0.0
18/05:00pm 9.9 7.1 2.3 59 3.2 E 6 9 3 5 - - 0.0
18/04:30pm 10.7 7.8 2.5 57 3.5 SE 7 9 4 5 - - 0.0
18/04:00pm 11.2 7.5 2.5 55 3.8 SSE 11 15 6 8 - - 0.0
18/03:30pm 11.3 7.6 2.3 54 3.9 S 11 17 6 9 - - 0.0
18/03:00pm 11.6 7.9 2.1 52 4.1 S 11 15 6 8 - - 0.0
18/02:30pm 11.4 7.6 1.6 51 4.2 SSE 11 15 6 8 - - 0.0
18/02:00pm 11.2 7.7 1.5 51 4.1 S 9 15 5 8 - - 0.0
18/01:30pm 11.4 7.7 2.2 53 4.0 SSE 11 19 6 10 - - 0.0
18/01:00pm 11.1 7.2 1.4 51 4.1 SSE 11 17 6 9 - - 0.0
18/12:30pm 11.4 8.4 2.2 53 4.0 SW 7 15 4 8 - - 0.0
18/12:00pm 11.0 7.9 1.5 52 4.0 SSE 7 15 4 8 - - 0.0
18/11:30am 10.8 7.9 1.6 53 3.9 W 6 13 3 7 - - 0.0
18/11:00am 11.3 8.5 1.8 52 4.0 NNW 6 9 3 5 - - 0.0
18/10:30am 10.0 7.3 2.6 60 3.2 SW 6 11 3 6 - - 0.0
18/10:00am 8.9 5.8 3.5 69 2.3 N 9 13 5 7 - - 0.0
18/09:30am 7.0 2.6 2.9 75 1.7 N 15 17 8 9 - - 0.0
18/09:00am 6.2 2.2 2.8 79 1.4 N 13 19 7 10 - - 0.0
18/08:30am 5.4 1.1 3.4 87 0.8 N 15 17 8 9 - - 0.0
18/08:00am 4.8 0.8 2.7 86 0.9 N 13 17 7 9 - - 0.0
18/07:30am 3.7 0.0 2.4 91 0.5 N 11 13 6 7 - - 0.0
18/07:00am 3.3 -1.2 2.3 93 0.4 NNE 15 19 8 10 - - 0.0
18/06:30am 2.4 -2.2 1.7 95 0.3 NNE 15 20 8 11 - - 0.0
18/06:00am 1.6 -2.3 0.9 95 0.3 N 11 15 6 8 - - 0.0
18/05:30am 1.0 -2.6 0.3 95 0.3 N 9 13 5 7 - - 0.0
18/05:00am 0.9 -3.5 0.2 95 0.3 N 13 15 7 8 - - 0.0
18/04:30am 0.6 -1.4 -0.3 94 0.3 CALM 0 4 0 2 - - 0.0
18/04:00am 1.2 -1.8 0.5 95 0.3 N 6 7 3 4 - - 0.0
18/03:30am 1.2 -0.7 0.3 94 0.3 CALM 0 0 0 0 - - 0.0
18/03:00am 2.1 -0.1 1.1 93 0.4 NE 2 6 1 3 - - 0.0
18/02:30am 3.4 1.0 2.2 92 0.5 NNW 4 7 2 4 - - 0.0
18/02:00am 3.7 0.8 2.4 91 0.5 NNW 7 9 4 5 - - 0.0
18/01:30am 4.4 2.9 2.9 90 0.6 CALM 0 0 0 0 - - 0.0
18/01:00am 5.2 3.8 3.5 89 0.7 CALM 0 0 0 0 - - 0.0
18/12:30am 5.9 3.3 4.1 88 0.8 NW 7 9 4 5 - - 0.0
18/12:00am 6.1 4.8 3.9 86 0.9 CALM 0 6 0 3 - - 0.0
 
Date/Time
EST
Tmp

°C
App
Tmp
°C
Dew
Point
°C
Rel
Hum
%
Delta-T

°C
Wind Press
QNH
hPa
Press
MSL
hPa
Rain
since
9 am
mm
Dir
 
Spd
km/h
Gust
km/h
Spd
kts
Gust
kts
17/11:30pm 6.0 3.4 4.0 87 0.9 NNE 7 9 4 5 - - 0.0
17/11:00pm 6.1 3.4 3.9 86 0.9 N 7 9 4 5 - - 0.0

Latest Capital City Observations: Canberra | Sydney | Melbourne | Brisbane | Adelaide | Perth | Hobart | Darwin

Other Formats:

Comma delimited format used in spreadsheet applications
http://www.bom.gov.au/fwo/IDT60901/IDT60901.95972.axf

JavaScript Object Notation format (JSON) in row-major order
http://www.bom.gov.au/fwo/IDT60901/IDT60901.95972.json